Oakland, California
Current Conditions -  °F | °C
As of 1:53 PM on Sunday 23 Nov 2014 (Local Time) from KOAK Reporting Station
Broken Clouds Broken Clouds  
Wind Chill: 61°   Ceiling: 25000
Heat Index: 61°   Visibility: 10mi
Dew Point: 43°   Wind: 7mph
Humidity: 52%   Direction: 270°W
Pressure: 30.29"   Gusts: NA
Location:  37.81°N, 122.27°W
Report Text: KOAK 232153Z 27006KT 10SM SCT100 BKN250 16/06 A3029 RMK AO2 SLP255 T01610061 $
Loading
Personal Weather Stations






























Interactive Weather Map New forecast layout! Learn more

10-Day Weather Forecast

Advertisements
Track Severe Weather on mobile